Time;durP1;ratioP1;P1;durP2;ratioP2;P2;SDS_P1;SDS_P2;PMS_P1;PMS_P2;Temp;Humidity;BMP_temperature;BMP_pressure;BME280_temperature;BME280_humidity;BME280_pressure;Samples;Min_cycle;Max_cycle;Signal;HPM_P1;HPM_P2
2022/01/29 00:01:37;;;;;;;19.07;10.60;;;6.80;99.90;;;;;;4917489;29;20220;-74
2022/01/29 00:04:03;;;;;;;17.37;9.47;;;6.80;99.90;;;;;;4929175;29;20247;-74
2022/01/29 00:06:29;;;;;;;20.00;10.33;;;6.80;99.90;;;;;;4927950;29;20192;-74
2022/01/29 00:08:57;;;;;;;20.03;10.80;;;6.70;99.90;;;;;;4926242;29;20301;-74
2022/01/29 00:11:28;;;;;;;18.80;11.57;;;6.70;99.90;;;;;;4928482;29;20195;-73
2022/01/29 00:13:55;;;;;;;21.33;12.73;;;6.70;99.90;;;;;;4929906;29;20452;-74
2022/01/29 00:16:20;;;;;;;19.73;11.53;;;6.70;99.90;;;;;;4921572;29;20456;-74
2022/01/29 00:18:46;;;;;;;19.90;11.80;;;6.60;99.90;;;;;;4925739;28;20960;-74
2022/01/29 00:21:11;;;;;;;24.43;12.47;;;6.60;99.90;;;;;;4927346;29;20211;-74
2022/01/29 00:23:39;;;;;;;24.50;13.27;;;6.60;99.90;;;;;;4928278;29;20279;-73
2022/01/29 00:26:05;;;;;;;19.63;12.13;;;6.70;99.90;;;;;;4929301;29;20243;-73
2022/01/29 00:28:35;;;;;;;20.80;11.60;;;6.70;99.90;;;;;;4924797;29;20564;-73
2022/01/29 00:31:04;;;;;;;22.93;13.50;;;6.60;99.90;;;;;;4930933;29;20971;-74
2022/01/29 00:33:32;;;;;;;20.47;13.83;;;6.70;99.90;;;;;;4926267;29;20480;-74
2022/01/29 00:35:57;;;;;;;23.07;14.20;;;6.70;99.90;;;;;;4933322;29;20443;-74
2022/01/29 00:38:23;;;;;;;25.33;13.70;;;6.70;99.90;;;;;;4930068;29;20881;-74
2022/01/29 00:40:53;;;;;;;26.37;14.60;;;6.70;99.90;;;;;;4926495;29;20616;-74
2022/01/29 00:43:19;;;;;;;23.90;14.27;;;6.70;99.90;;;;;;4928732;29;20779;-74
2022/01/29 00:45:44;;;;;;;26.50;15.27;;;6.70;99.90;;;;;;4923368;29;20581;-74
2022/01/29 00:48:12;;;;;;;29.37;15.93;;;6.70;99.90;;;;;;4925308;29;20220;-74
2022/01/29 00:50:40;;;;;;;26.63;14.40;;;6.70;99.90;;;;;;4928222;29;20203;-74
2022/01/29 00:53:05;;;;;;;26.60;16.00;;;6.60;99.90;;;;;;4924587;29;20514;-73
2022/01/29 00:55:31;;;;;;;26.40;16.60;;;6.60;99.90;;;;;;4924181;29;20460;-74
2022/01/29 00:57:57;;;;;;;29.93;17.07;;;6.60;99.90;;;;;;4926287;29;20663;-74
2022/01/29 01:00:22;;;;;;;32.70;17.00;;;6.60;99.90;;;;;;4928362;29;20679;-74
2022/01/29 01:02:48;;;;;;;28.53;16.90;;;6.60;99.90;;;;;;4935344;29;20194;-74
2022/01/29 01:05:16;;;;;;;28.77;16.00;;;6.60;99.90;;;;;;4944607;29;20218;-73
2022/01/29 01:07:46;;;;;;;29.17;17.30;;;6.70;99.90;;;;;;4949438;29;20228;-73
2022/01/29 01:10:13;;;;;;;34.50;18.47;;;6.60;99.90;;;;;;4934894;29;20526;-74
2022/01/29 01:12:39;;;;;;;30.67;17.20;;;6.50;99.90;;;;;;4924749;29;20506;-73
2022/01/29 01:15:08;;;;;;;29.13;17.30;;;6.50;99.90;;;;;;4925065;29;20971;-74
2022/01/29 01:17:34;;;;;;;33.77;18.83;;;6.60;99.90;;;;;;4927516;29;20220;-73
2022/01/29 01:20:02;;;;;;;29.30;17.63;;;6.60;99.90;;;;;;4928371;29;20488;-74
2022/01/29 01:22:30;;;;;;;30.60;18.13;;;6.50;99.90;;;;;;4925680;29;20483;-75
2022/01/29 01:24:55;;;;;;;32.90;19.00;;;6.60;99.90;;;;;;4926159;29;20471;-75
2022/01/29 01:27:21;;;;;;;29.43;17.80;;;6.60;99.90;;;;;;4927061;29;20472;-74
2022/01/29 01:29:46;;;;;;;33.43;20.30;;;6.60;99.90;;;;;;4919672;29;20203;-74
2022/01/29 01:32:12;;;;;;;36.60;21.13;;;6.50;99.90;;;;;;4936292;29;20856;-74
2022/01/29 01:34:44;;;;;;;31.60;19.57;;;6.50;99.90;;;;;;4926652;29;20646;-74
2022/01/29 01:37:15;;;;;;;35.20;20.20;;;6.60;99.90;;;;;;4929180;29;20220;-74
2022/01/29 01:39:41;;;;;;;35.50;20.43;;;6.60;99.90;;;;;;4920264;29;20574;-74
2022/01/29 01:42:12;;;;;;;38.63;23.03;;;6.60;99.90;;;;;;4925205;29;20562;-74
2022/01/29 01:44:46;;;;;;;38.67;21.37;;;6.60;99.90;;;;;;4924989;29;20563;-74
2022/01/29 01:47:16;;;;;;;39.67;21.70;;;6.70;99.90;;;;;;4926910;29;20485;-74
2022/01/29 01:49:41;;;;;;;36.40;21.17;;;6.70;99.90;;;;;;4914594;29;20484;-74
2022/01/29 01:52:10;;;;;;;35.07;21.47;;;6.70;99.90;;;;;;4922647;29;20456;-74
2022/01/29 01:54:37;;;;;;;42.07;23.40;;;6.80;99.90;;;;;;4928275;29;20227;-74
2022/01/29 01:57:03;;;;;;;36.93;21.87;;;6.70;99.90;;;;;;4926471;29;20468;-74
2022/01/29 01:59:38;;;;;;;43.53;23.97;;;6.70;99.90;;;;;;4943558;29;20499;-75
2022/01/29 02:02:04;;;;;;;37.03;23.53;;;6.60;99.90;;;;;;4948597;29;20188;-73
2022/01/29 02:04:33;;;;;;;53.10;25.50;;;6.70;99.90;;;;;;4948334;29;20452;-74
2022/01/29 02:07:05;;;;;;;45.63;23.03;;;6.70;99.90;;;;;;4943103;29;20215;-74
2022/01/29 02:09:32;;;;;;;40.87;24.10;;;6.60;99.90;;;;;;4922046;29;20562;-73
2022/01/29 02:12:03;;;;;;;40.87;23.77;;;6.60;99.90;;;;;;4925072;29;20452;-72
2022/01/29 02:14:32;;;;;;;42.63;24.37;;;6.60;99.90;;;;;;4928560;29;20448;-74
2022/01/29 02:16:59;;;;;;;44.07;24.30;;;6.70;99.90;;;;;;4925746;29;20494;-74
2022/01/29 02:19:26;;;;;;;41.70;24.43;;;6.70;99.90;;;;;;4924439;29;20590;-74
2022/01/29 02:21:56;;;;;;;44.20;24.73;;;6.60;99.90;;;;;;4927933;29;20475;-74
2022/01/29 02:24:26;;;;;;;46.03;24.50;;;6.70;99.90;;;;;;4928203;29;20531;-74
2022/01/29 02:26:57;;;;;;;47.87;25.67;;;6.70;99.90;;;;;;4929463;29;20472;-74
2022/01/29 02:29:23;;;;;;;45.40;25.70;;;6.60;99.90;;;;;;4917843;28;20475;-74
2022/01/29 02:31:50;;;;;;;44.43;24.93;;;6.60;99.90;;;;;;4928176;29;20460;-74
2022/01/29 02:34:16;;;;;;;44.97;25.40;;;6.70;99.90;;;;;;4929200;29;20984;-74
2022/01/29 02:36:43;;;;;;;46.53;26.83;;;6.70;99.90;;;;;;4929227;29;20479;-74
2022/01/29 02:39:11;;;;;;;47.37;26.57;;;6.70;99.90;;;;;;4932229;29;20610;-74
2022/01/29 02:41:39;;;;;;;40.47;24.63;;;6.70;99.90;;;;;;4929184;29;20574;-73
2022/01/29 02:44:06;;;;;;;48.83;26.43;;;6.70;99.90;;;;;;4929482;29;20444;-74
2022/01/29 02:46:48;;;;;;;49.60;24.60;;;6.70;99.90;;;;;;4922483;29;20979;-74
2022/01/29 02:49:24;;;;;;;45.83;25.30;;;6.70;99.90;;;;;;4930468;29;20471;-74
2022/01/29 02:51:55;;;;;;;45.57;26.37;;;6.70;99.90;;;;;;4929909;29;20459;-74
2022/01/29 02:54:21;;;;;;;48.87;26.90;;;6.70;99.90;;;;;;4931248;29;20828;-73
2022/01/29 02:56:48;;;;;;;47.53;25.07;;;6.70;99.90;;;;;;4931604;29;20510;-74
2022/01/29 02:59:14;;;;;;;46.37;27.30;;;6.70;99.90;;;;;;4931992;29;20487;-74
2022/01/29 03:01:40;;;;;;;44.80;26.27;;;6.80;99.90;;;;;;4931573;29;20486;-74
2022/01/29 03:04:06;;;;;;;49.03;27.33;;;6.80;99.90;;;;;;4930044;29;20447;-74
2022/01/29 03:06:32;;;;;;;46.07;25.43;;;6.80;99.90;;;;;;4904855;29;20844;-74
2022/01/29 03:08:58;;;;;;;42.67;24.33;;;6.80;99.90;;;;;;4911076;28;20475;-74
2022/01/29 03:11:24;;;;;;;44.93;24.77;;;6.80;99.90;;;;;;4921919;29;20451;-74
2022/01/29 03:13:50;;;;;;;45.77;26.10;;;6.70;99.90;;;;;;4923576;29;20653;-74
2022/01/29 03:16:19;;;;;;;45.13;25.97;;;6.70;99.90;;;;;;4929888;29;20193;-74
2022/01/29 03:18:45;;;;;;;47.90;25.93;;;6.70;99.90;;;;;;4929848;29;20502;-74
2022/01/29 03:21:10;;;;;;;49.47;25.50;;;6.70;99.90;;;;;;4931734;29;20475;-74
2022/01/29 03:23:36;;;;;;;47.10;26.10;;;6.70;99.90;;;;;;4926943;29;20467;-74
2022/01/29 03:26:02;;;;;;;42.63;24.67;;;6.80;99.90;;;;;;4929184;29;20192;-73
2022/01/29 03:28:28;;;;;;;47.43;25.30;;;6.80;99.90;;;;;;4929639;29;20715;-74
2022/01/29 03:30:55;;;;;;;43.50;22.83;;;6.80;99.90;;;;;;4931598;29;20207;-73
2022/01/29 03:33:21;;;;;;;41.60;23.97;;;6.70;99.90;;;;;;4915999;29;20910;-73
2022/01/29 03:35:48;;;;;;;39.60;22.20;;;6.70;99.90;;;;;;4928949;29;20483;-74
2022/01/29 03:38:16;;;;;;;42.17;23.70;;;6.80;99.90;;;;;;4933830;29;20480;-74
2022/01/29 03:40:44;;;;;;;41.70;23.47;;;6.90;99.90;;;;;;4955441;29;20512;-74
2022/01/29 03:43:13;;;;;;;41.20;24.27;;;6.90;99.90;;;;;;4939980;29;20459;-74
2022/01/29 03:45:38;;;;;;;42.53;21.93;;;6.90;99.90;;;;;;4930805;29;20467;-73
2022/01/29 03:48:06;;;;;;;35.70;22.13;;;6.90;99.90;;;;;;4928094;29;20484;-74
2022/01/29 03:50:35;;;;;;;37.97;22.27;;;6.90;99.90;;;;;;4929499;29;20240;-73
2022/01/29 03:53:01;;;;;;;41.30;21.73;;;6.90;99.90;;;;;;4923386;29;20455;-75
2022/01/29 03:55:27;;;;;;;39.90;22.23;;;7.00;99.90;;;;;;4929747;29;20452;-74
2022/01/29 03:57:52;;;;;;;38.93;20.60;;;7.00;99.90;;;;;;4930749;29;20232;-73
2022/01/29 04:00:18;;;;;;;40.23;21.70;;;7.00;99.90;;;;;;4936349;29;20495;-74
2022/01/29 04:02:44;;;;;;;35.63;21.20;;;7.00;99.90;;;;;;4931157;29;20300;-74
2022/01/29 04:05:12;;;;;;;37.73;22.30;;;7.00;99.90;;;;;;4936120;29;20547;-74
2022/01/29 04:07:40;;;;;;;35.33;20.73;;;7.00;99.90;;;;;;4931619;29;20308;-74
2022/01/29 04:10:06;;;;;;;40.23;21.03;;;7.00;99.90;;;;;;4934628;29;20459;-74
2022/01/29 04:12:40;;;;;;;40.07;22.83;;;7.00;99.90;;;;;;4921018;29;20459;-74
2022/01/29 04:15:07;;;;;;;31.80;20.07;;;7.00;99.90;;;;;;4932295;29;20501;-74
2022/01/29 04:17:32;;;;;;;33.00;19.70;;;7.10;99.90;;;;;;4931591;29;21030;-73
2022/01/29 04:19:58;;;;;;;33.90;19.87;;;7.10;99.90;;;;;;4923131;29;20452;-74
2022/01/29 04:22:23;;;;;;;37.23;20.40;;;7.10;99.90;;;;;;4931396;29;20255;-74
2022/01/29 04:24:49;;;;;;;35.40;19.70;;;7.10;99.90;;;;;;4929901;29;20654;-73
2022/01/29 04:27:21;;;;;;;33.27;19.30;;;7.10;99.90;;;;;;4930479;29;20653;-74
2022/01/29 04:29:58;;;;;;;31.47;19.63;;;7.20;99.90;;;;;;4917303;29;20703;-74
2022/01/29 04:32:34;;;;;;;32.93;19.77;;;7.20;99.90;;;;;;4930778;29;20444;-73
2022/01/29 04:35:00;;;;;;;31.63;19.03;;;7.20;99.90;;;;;;4928200;29;20908;-73
2022/01/29 04:37:25;;;;;;;36.07;20.00;;;7.20;99.90;;;;;;4928391;29;20479;-73
2022/01/29 04:39:51;;;;;;;34.63;19.53;;;7.20;99.90;;;;;;4928109;29;20656;-74
2022/01/29 04:42:16;;;;;;;34.27;20.60;;;7.20;99.90;;;;;;4931996;29;20196;-73
2022/01/29 04:44:44;;;;;;;33.10;20.30;;;7.20;99.90;;;;;;4929912;29;20243;-73
2022/01/29 04:47:10;;;;;;;33.53;18.60;;;7.20;99.90;;;;;;4929005;29;20212;-74
2022/01/29 04:49:35;;;;;;;31.17;18.57;;;7.20;99.90;;;;;;4919654;29;20494;-74
2022/01/29 04:52:01;;;;;;;31.80;19.53;;;7.30;99.90;;;;;;4932492;29;20581;-74
2022/01/29 04:54:28;;;;;;;29.67;18.73;;;7.30;99.90;;;;;;4923965;29;20765;-73
2022/01/29 04:56:54;;;;;;;31.30;17.33;;;7.20;99.90;;;;;;4925967;29;20214;-74
2022/01/29 04:59:19;;;;;;;30.73;18.30;;;7.20;99.90;;;;;;4928485;28;20479;-74
2022/01/29 05:01:45;;;;;;;29.10;17.60;;;7.20;99.90;;;;;;4927948;29;20240;-74
2022/01/29 05:04:11;;;;;;;29.83;17.80;;;7.30;99.90;;;;;;4932972;29;20185;-74
2022/01/29 05:06:38;;;;;;;29.83;18.37;;;7.30;99.90;;;;;;4927662;29;20270;-74
2022/01/29 05:09:07;;;;;;;30.27;18.07;;;7.30;99.90;;;;;;4926763;29;20234;-74
2022/01/29 05:11:33;;;;;;;33.37;18.07;;;7.30;99.90;;;;;;4918420;29;20440;-74
2022/01/29 05:14:03;;;;;;;32.03;18.70;;;7.40;99.90;;;;;;4931016;29;20905;-73
2022/01/29 05:17:07;;;;;;;28.83;17.60;;;7.40;99.90;;;;;;4927774;29;20188;-75
2022/01/29 05:26:51;;;;;;;29.37;17.30;;;7.40;99.90;;;;;;4930903;29;20467;-74
2022/01/29 05:27:51;;;;;;;31.67;18.07;;;7.50;99.90;;;;;;4926085;29;21030;-74
2022/01/29 05:30:16;;;;;;;26.57;17.70;;;7.50;99.90;;;;;;4920298;29;20746;-73
2022/01/29 05:32:42;;;;;;;29.00;16.63;;;7.40;99.90;;;;;;4929721;29;20892;-74
2022/01/29 05:35:08;;;;;;;31.27;17.00;;;7.40;99.90;;;;;;4926400;29;20188;-74
2022/01/29 05:37:36;;;;;;;28.50;16.23;;;7.40;99.90;;;;;;4924873;29;20283;-74
2022/01/29 05:40:04;;;;;;;28.17;17.10;;;7.40;99.90;;;;;;4927640;29;21217;-74
2022/01/29 05:42:29;;;;;;;28.67;16.47;;;7.50;99.90;;;;;;4929203;29;20455;-74
2022/01/29 05:44:55;;;;;;;30.13;17.70;;;7.50;99.90;;;;;;4926173;29;20460;-73
2022/01/29 05:47:20;;;;;;;30.10;17.57;;;7.50;99.90;;;;;;4917059;29;20207;-73
2022/01/29 05:49:48;;;;;;;29.83;16.97;;;7.50;99.90;;;;;;4925737;29;20207;-74
2022/01/29 05:52:14;;;;;;;25.77;14.93;;;7.60;99.90;;;;;;4924379;29;20571;-74
2022/01/29 05:54:39;;;;;;;30.33;17.10;;;7.60;99.90;;;;;;4927589;29;20457;-74
2022/01/29 05:57:05;;;;;;;23.90;15.43;;;7.70;99.90;;;;;;4928342;29;20697;-74
2022/01/29 05:59:34;;;;;;;24.23;16.53;;;7.70;99.90;;;;;;4925666;29;20230;-74
2022/01/29 06:02:00;;;;;;;26.50;15.57;;;7.70;99.90;;;;;;4925092;29;20672;-74
2022/01/29 06:04:29;;;;;;;25.50;15.63;;;7.80;99.90;;;;;;4928269;29;20555;-73
2022/01/29 06:06:57;;;;;;;26.80;16.77;;;7.80;99.90;;;;;;4926984;29;20218;-74
2022/01/29 06:09:22;;;;;;;28.33;17.33;;;7.80;99.90;;;;;;4920273;29;20484;-74
2022/01/29 06:11:48;;;;;;;23.70;14.93;;;7.80;99.90;;;;;;4922441;29;20444;-74
2022/01/29 06:14:14;;;;;;;27.20;17.00;;;7.80;99.90;;;;;;4927632;29;20195;-74
2022/01/29 06:16:42;;;;;;;23.70;15.83;;;7.80;99.90;;;;;;4928944;29;20288;-74
2022/01/29 06:19:08;;;;;;;26.10;16.00;;;7.80;99.90;;;;;;4929737;29;20532;-74
2022/01/29 06:21:33;;;;;;;25.50;15.50;;;7.80;99.90;;;;;;4945421;29;20484;-74
2022/01/29 06:24:00;;;;;;;24.67;15.60;;;7.90;99.90;;;;;;4930284;29;20188;-74
2022/01/29 06:26:25;;;;;;;24.90;15.23;;;7.90;99.90;;;;;;4929619;29;20657;-74
2022/01/29 06:28:51;;;;;;;24.30;14.87;;;7.90;99.90;;;;;;4905676;29;20534;-73
2022/01/29 06:31:18;;;;;;;22.00;14.17;;;7.80;99.90;;;;;;4925871;29;20196;-74
2022/01/29 06:33:43;;;;;;;22.67;15.60;;;7.90;99.90;;;;;;4927986;29;20551;-74
2022/01/29 06:36:11;;;;;;;26.40;16.07;;;7.90;99.90;;;;;;4928217;29;20455;-74
2022/01/29 06:38:39;;;;;;;28.07;15.47;;;8.00;99.90;;;;;;4925209;29;20232;-74
2022/01/29 06:41:05;;;;;;;25.17;15.13;;;8.00;99.90;;;;;;4929591;29;20507;-74
2022/01/29 06:43:30;;;;;;;24.40;15.50;;;8.00;99.90;;;;;;4927191;29;20718;-73
2022/01/29 06:45:58;;;;;;;28.40;15.43;;;8.10;99.90;;;;;;4927314;29;20211;-74
2022/01/29 06:48:26;;;;;;;25.93;15.50;;;8.10;99.90;;;;;;4919342;29;20822;-74
2022/01/29 06:50:52;;;;;;;24.57;16.80;;;8.10;99.90;;;;;;4927358;29;20459;-74
2022/01/29 06:53:17;;;;;;;27.00;17.03;;;8.10;99.90;;;;;;4928561;29;20440;-73
2022/01/29 06:55:43;;;;;;;27.13;17.60;;;8.10;99.90;;;;;;4926103;29;20220;-74
2022/01/29 06:58:09;;;;;;;30.37;19.23;;;8.20;99.90;;;;;;4923409;29;20235;-73
2022/01/29 07:00:34;;;;;;;32.40;17.63;;;8.20;99.90;;;;;;4922991;29;20227;-75
2022/01/29 07:03:00;;;;;;;29.00;18.17;;;8.30;99.90;;;;;;4926567;29;20574;-74
2022/01/29 07:05:25;;;;;;;31.70;18.33;;;8.30;99.90;;;;;;4921159;29;20196;-74
2022/01/29 07:07:51;;;;;;;30.13;18.00;;;8.40;99.90;;;;;;4916790;29;20213;-74
2022/01/29 07:10:17;;;;;;;30.87;18.20;;;8.30;99.90;;;;;;4924615;29;20192;-73
2022/01/29 07:12:45;;;;;;;28.77;18.60;;;8.30;99.90;;;;;;4906267;29;20271;-74
2022/01/29 07:15:11;;;;;;;31.10;18.13;;;8.30;99.90;;;;;;4915211;29;20789;-74
2022/01/29 07:17:37;;;;;;;28.87;18.10;;;8.30;99.90;;;;;;4922358;29;20662;-74
2022/01/29 07:20:04;;;;;;;32.23;18.10;;;8.30;99.90;;;;;;4921239;29;20475;-74
2022/01/29 07:22:30;;;;;;;27.20;17.80;;;8.40;99.90;;;;;;4925510;29;20193;-73
2022/01/29 07:24:56;;;;;;;31.43;18.40;;;8.40;99.90;;;;;;4927577;29;21801;-73
2022/01/29 07:27:24;;;;;;;31.47;18.70;;;8.50;99.90;;;;;;4924115;29;20689;-73
2022/01/29 07:29:50;;;;;;;27.37;16.40;;;8.50;99.90;;;;;;4921149;29;20191;-74
2022/01/29 07:32:15;;;;;;;24.87;16.80;;;8.50;99.90;;;;;;4923043;29;20448;-72
2022/01/29 07:34:41;;;;;;;23.83;15.13;;;8.50;99.90;;;;;;4935272;28;20673;-73
2022/01/29 07:37:07;;;;;;;26.10;15.90;;;8.50;99.90;;;;;;4930451;29;20711;-73
2022/01/29 07:39:32;;;;;;;21.33;15.07;;;8.50;99.90;;;;;;4926881;29;20224;-74
2022/01/29 07:41:59;;;;;;;25.40;16.13;;;8.50;99.90;;;;;;4924714;29;20299;-72
2022/01/29 07:44:25;;;;;;;23.80;14.73;;;8.50;99.90;;;;;;4923872;29;20553;-74
2022/01/29 07:46:51;;;;;;;22.03;14.30;;;8.60;99.90;;;;;;4924912;29;23166;-73
2022/01/29 07:49:17;;;;;;;21.97;13.87;;;8.60;99.90;;;;;;4908485;29;21039;-73
2022/01/29 07:51:43;;;;;;;18.73;13.57;;;8.60;99.90;;;;;;4913894;29;20456;-73
2022/01/29 07:54:09;;;;;;;20.73;13.37;;;8.70;99.90;;;;;;4916452;29;20479;-73
2022/01/29 07:56:34;;;;;;;17.67;12.07;;;8.70;99.90;;;;;;4916106;29;20216;-74
2022/01/29 07:59:01;;;;;;;17.40;12.50;;;8.70;99.90;;;;;;4916196;29;20479;-75
2022/01/29 08:01:26;;;;;;;19.40;12.50;;;8.70;99.90;;;;;;4923181;29;20956;-74
2022/01/29 08:03:53;;;;;;;18.97;12.33;;;8.70;99.90;;;;;;4925586;29;20526;-74
2022/01/29 08:06:26;;;;;;;16.30;11.07;;;8.70;99.90;;;;;;4922134;29;20252;-74
2022/01/29 08:08:52;;;;;;;15.90;10.77;;;8.70;99.90;;;;;;4924435;29;20482;-74
2022/01/29 08:11:18;;;;;;;21.20;11.30;;;8.80;99.90;;;;;;4918746;29;20455;-74
2022/01/29 08:13:46;;;;;;;17.93;10.90;;;8.80;99.90;;;;;;4913961;29;20536;-74
2022/01/29 08:16:12;;;;;;;14.30;10.80;;;8.80;99.90;;;;;;4919365;29;20460;-74
2022/01/29 08:18:38;;;;;;;12.70;9.53;;;8.80;99.90;;;;;;4922093;29;20535;-75
2022/01/29 08:21:03;;;;;;;16.53;10.83;;;8.90;99.90;;;;;;4912543;29;20611;-73
2022/01/29 08:23:29;;;;;;;15.50;10.77;;;8.80;99.90;;;;;;4923095;29;20200;-73
2022/01/29 08:25:54;;;;;;;14.30;10.43;;;8.80;99.90;;;;;;4939889;29;20396;-73
2022/01/29 08:28:20;;;;;;;14.73;10.53;;;8.80;99.90;;;;;;4941424;29;20236;-73
2022/01/29 08:30:45;;;;;;;14.10;9.57;;;8.80;99.90;;;;;;4940708;29;20232;-73
2022/01/29 08:33:17;;;;;;;13.23;9.23;;;8.90;99.90;;;;;;4940572;29;20231;-74
2022/01/29 08:35:42;;;;;;;13.37;10.03;;;8.80;99.90;;;;;;4930209;29;20199;-74
2022/01/29 08:38:08;;;;;;;13.93;9.30;;;8.90;99.90;;;;;;4944484;29;20917;-78
2022/01/29 08:40:34;;;;;;;15.10;9.00;;;8.80;99.90;;;;;;4924157;29;20224;-74
2022/01/29 08:42:59;;;;;;;12.57;9.40;;;8.90;99.90;;;;;;4920742;29;20188;-73
2022/01/29 08:45:25;;;;;;;12.80;8.87;;;8.90;99.90;;;;;;4922939;29;20212;-73
2022/01/29 08:47:50;;;;;;;12.93;9.70;;;8.90;99.90;;;;;;4913629;29;20228;-74
2022/01/29 08:50:16;;;;;;;12.23;9.20;;;8.90;99.90;;;;;;4919796;29;20200;-73
2022/01/29 08:52:42;;;;;;;10.57;8.40;;;8.90;99.90;;;;;;4924603;29;20200;-73
2022/01/29 08:55:10;;;;;;;12.40;8.73;;;9.00;99.90;;;;;;4927005;29;20463;-74
2022/01/29 08:57:36;;;;;;;12.00;9.27;;;9.00;99.90;;;;;;4923196;28;20208;-74
2022/01/29 09:00:05;;;;;;;11.97;9.27;;;9.00;99.90;;;;;;4914061;29;20475;-73
2022/01/29 09:02:30;;;;;;;14.40;10.30;;;9.10;99.90;;;;;;4936556;29;20193;-74
2022/01/29 09:04:57;;;;;;;11.27;9.47;;;9.20;99.90;;;;;;4947886;29;20506;-74
2022/01/29 09:07:23;;;;;;;11.70;8.73;;;9.10;99.90;;;;;;4926531;29;21308;-73
2022/01/29 09:09:49;;;;;;;12.50;9.20;;;9.10;99.90;;;;;;4921051;29;20455;-74
2022/01/29 09:12:15;;;;;;;10.17;8.03;;;9.10;99.90;;;;;;4932324;29;20467;-73
2022/01/29 09:14:41;;;;;;;12.70;8.80;;;9.10;99.90;;;;;;4919737;29;20691;-73
2022/01/29 09:17:07;;;;;;;10.67;7.63;;;9.10;99.90;;;;;;4918637;29;20710;-73
2022/01/29 09:19:33;;;;;;;11.17;7.90;;;9.10;99.90;;;;;;4920879;29;20595;-74
2022/01/29 09:21:58;;;;;;;11.63;8.03;;;9.10;99.90;;;;;;4924335;29;20579;-73
2022/01/29 09:24:24;;;;;;;11.43;8.70;;;9.10;99.90;;;;;;4927261;29;20271;-74
2022/01/29 09:26:50;;;;;;;10.90;7.43;;;9.20;99.90;;;;;;4918573;29;20576;-74
2022/01/29 09:29:15;;;;;;;10.87;7.70;;;9.10;99.90;;;;;;4931329;29;20295;-74
2022/01/29 09:31:41;;;;;;;10.33;8.03;;;9.10;99.90;;;;;;4916650;29;20543;-74
2022/01/29 09:34:08;;;;;;;9.93;7.80;;;9.10;99.90;;;;;;4923088;29;20196;-74
2022/01/29 09:36:34;;;;;;;8.57;6.63;;;9.20;99.90;;;;;;4921302;29;20199;-75
2022/01/29 09:39:00;;;;;;;9.53;7.50;;;9.20;99.90;;;;;;4925041;29;20472;-74
2022/01/29 09:41:27;;;;;;;10.40;7.17;;;9.10;99.90;;;;;;4920892;29;20201;-74
2022/01/29 09:43:54;;;;;;;49.13;26.80;;;9.20;99.90;;;;;;4921174;29;20188;-75
2022/01/29 09:46:20;;;;;;;178.97;63.77;;;9.20;99.90;;;;;;4918660;29;20535;-73
2022/01/29 09:48:47;;;;;;;205.03;67.97;;;9.20;99.90;;;;;;4916692;29;20558;-74
2022/01/29 09:51:14;;;;;;;;;;;9.20;99.90;;;;;;4923288;29;20957;-74
2022/01/29 09:53:42;;;;;;;;;;;9.20;99.90;;;;;;4933385;29;20397;-73
2022/01/29 09:56:08;;;;;;;;;;;9.40;99.90;;;;;;4922077;29;20421;-74
2022/01/29 09:58:34;;;;;;;;;;;9.50;99.90;;;;;;4923400;29;20869;-74
2022/01/29 10:00:59;;;;;;;;;;;9.60;99.90;;;;;;4924179;29;20850;-75
2022/01/29 10:03:26;;;;;;;;;;;9.60;99.90;;;;;;4921800;29;20494;-74
2022/01/29 10:05:57;;;;;;;287.40;178.30;;;9.60;99.90;;;;;;4916891;29;20436;-76
2022/01/29 10:08:23;;;;;;;355.45;263.27;;;9.70;99.90;;;;;;4918228;29;25108;-75
2022/01/29 10:10:52;;;;;;;;;;;9.80;99.90;;;;;;4920839;29;20905;-74
2022/01/29 10:13:23;;;;;;;;;;;9.70;99.90;;;;;;4916500;29;25120;-74
2022/01/29 10:15:49;;;;;;;;;;;9.70;99.90;;;;;;4951002;23;22285;-74
2022/01/29 10:18:22;;;;;;;435.77;391.37;;;9.70;99.90;;;;;;4909416;28;20483;-75
2022/01/29 10:20:49;;;;;;;596.78;549.70;;;9.80;99.90;;;;;;4908734;29;20847;-74
2022/01/29 10:23:15;;;;;;;573.42;527.35;;;9.80;99.90;;;;;;4910531;29;21025;-75
2022/01/29 10:25:43;;;;;;;591.25;545.00;;;9.80;99.90;;;;;;4910905;29;20417;-74
2022/01/29 10:28:19;;;;;;;630.45;584.05;;;9.80;99.90;;;;;;4900572;29;20517;-75
2022/01/29 10:30:51;;;;;;;606.67;558.27;;;9.90;99.90;;;;;;4900800;29;20424;-73
2022/01/29 10:33:40;;;;;;;643.47;595.53;;;10.00;99.90;;;;;;4908344;29;20427;-75
2022/01/29 10:36:14;;;;;;;588.25;542.90;;;9.90;99.90;;;;;;4907135;29;20442;-76
2022/01/29 10:38:40;;;;;;;618.17;570.88;;;10.00;99.90;;;;;;4907140;28;20428;-75
2022/01/29 10:41:30;;;;;;;537.13;490.63;;;9.90;99.90;;;;;;4907789;29;20423;-75
2022/01/29 10:44:20;;;;;;;622.72;575.40;;;9.90;99.90;;;;;;4910681;29;20443;-76
2022/01/29 10:46:54;;;;;;;622.47;575.60;;;10.00;99.90;;;;;;4902179;29;20454;-74
2022/01/29 10:49:24;;;;;;;632.22;584.22;;;10.00;99.90;;;;;;4901525;28;20429;-75
2022/01/29 10:52:07;;;;;;;352.13;302.80;;;10.10;99.90;;;;;;4893313;29;20422;-75
2022/01/29 10:54:34;;;;;;;;;;;10.10;99.90;;;;;;4915972;29;20494;-76
2022/01/29 10:57:00;;;;;;;359.35;299.70;;;10.10;99.90;;;;;;4925620;29;25112;-76
2022/01/29 10:59:26;;;;;;;;;;;10.10;99.90;;;;;;4905501;28;20469;-76
2022/01/29 11:02:14;;;;;;;374.63;291.02;;;10.00;99.90;;;;;;4914072;29;20467;-76
2022/01/29 11:04:40;;;;;;;;;;;10.00;99.90;;;;;;4915523;29;20421;-76
2022/01/29 11:07:13;;;;;;;;;;;9.90;99.90;;;;;;4920263;29;25066;-76
2022/01/29 11:09:40;;;;;;;;;;;10.00;99.90;;;;;;4914683;29;20980;-76
2022/01/29 11:12:05;;;;;;;;;;;10.00;99.90;;;;;;4907933;29;20416;-76
2022/01/29 11:14:31;;;;;;;;;;;10.10;99.90;;;;;;4918064;29;20508;-76
2022/01/29 11:16:58;;;;;;;;;;;10.10;99.90;;;;;;4909904;29;25133;-75
2022/01/29 11:19:23;;;;;;;;;;;10.20;99.90;;;;;;4918082;29;25140;-76
2022/01/29 11:21:51;;;;;;;;;;;10.30;99.90;;;;;;4914197;29;20440;-76
2022/01/29 11:24:19;;;;;;;302.30;175.60;;;10.20;99.90;;;;;;4907973;29;20424;-75
2022/01/29 11:26:45;;;;;;;317.40;209.50;;;10.20;99.90;;;;;;4915833;29;20443;-75
2022/01/29 11:29:34;;;;;;;312.10;213.10;;;10.10;99.90;;;;;;4908956;28;20441;-75
2022/01/29 11:32:22;;;;;;;475.43;431.53;;;10.10;99.90;;;;;;4913940;29;20415;-75
2022/01/29 11:35:12;;;;;;;545.55;499.17;;;10.10;99.90;;;;;;4925473;29;20427;-74
2022/01/29 11:37:48;;;;;;;406.42;355.38;;;10.20;99.90;;;;;;4912454;28;20451;-75
2022/01/29 11:40:17;;;;;;;304.20;185.50;;;10.20;99.90;;;;;;4916564;29;20488;-75
2022/01/29 11:42:52;;;;;;;;;;;10.20;99.90;;;;;;4923891;29;20536;-74
2022/01/29 11:45:31;;;;;;;;;;;10.30;99.90;;;;;;4892785;29;21089;-74
2022/01/29 11:47:57;;;;;;;;;;;10.20;99.90;;;;;;4912831;28;25111;-73
2022/01/29 11:50:28;;;;;;;;;;;10.30;99.90;;;;;;4913540;29;20437;-74
2022/01/29 11:52:57;;;;;;;;;;;10.20;99.90;;;;;;4924809;29;20431;-74
2022/01/29 11:55:39;;;;;;;312.40;195.77;;;10.20;99.90;;;;;;4939725;29;20445;-72
2022/01/29 11:58:17;;;;;;;;;;;10.20;99.90;;;;;;4918565;28;20947;-73
2022/01/29 12:00:48;;;;;;;365.85;288.30;;;10.20;99.90;;;;;;4910245;29;20426;-74
2022/01/29 12:03:41;;;;;;;373.05;281.67;;;10.30;99.90;;;;;;4919227;29;20924;-74
2022/01/29 12:09:05;;;;;;;352.60;230.80;;;10.30;99.90;;;;;;4914364;28;20431;-74
2022/01/29 12:11:35;;;;;;;388.98;345.33;;;10.30;99.90;;;;;;4906360;29;20783;-74
2022/01/29 12:14:13;;;;;;;559.70;515.50;;;10.40;99.90;;;;;;4911797;29;20458;-74
2022/01/29 12:16:57;;;;;;;553.45;509.25;;;10.50;99.90;;;;;;4905258;29;20428;-75
2022/01/29 12:19:41;;;;;;;609.20;563.22;;;10.50;99.90;;;;;;4912799;28;20615;-75
2022/01/29 12:22:28;;;;;;;606.95;561.25;;;10.50;99.90;;;;;;4910171;29;20503;-74
2022/01/29 12:24:57;;;;;;;616.05;569.95;;;10.50;99.90;;;;;;4904883;29;20427;-74
2022/01/29 12:27:24;;;;;;;602.58;556.92;;;10.50;99.90;;;;;;4907162;28;24480;-74
2022/01/29 12:29:50;;;;;;;572.25;527.45;;;10.50;99.90;;;;;;4913269;29;20858;-74
2022/01/29 12:32:15;;;;;;;603.58;558.28;;;10.50;99.90;;;;;;4913111;29;20499;-75
2022/01/29 12:34:51;;;;;;;636.70;589.92;;;10.40;99.90;;;;;;4908263;29;20812;-73
2022/01/29 12:37:19;;;;;;;588.95;543.65;;;10.50;99.90;;;;;;4910863;29;20445;-73
2022/01/29 12:39:47;;;;;;;609.05;563.45;;;10.50;99.90;;;;;;4909410;29;20428;-73
2022/01/29 12:44:43;;;;;;;353.67;155.77;;;10.40;99.90;;;;;;4914881;29;20749;-75
2022/01/29 12:47:26;;;;;;;381.38;335.55;;;10.40;99.90;;;;;;4902147;29;20433;-73
2022/01/29 12:49:52;;;;;;;454.67;410.75;;;10.50;99.90;;;;;;4905532;29;20934;-74
2022/01/29 12:52:18;;;;;;;352.90;176.03;;;10.60;99.90;;;;;;4910512;29;20491;-73
2022/01/29 12:54:57;;;;;;;318.10;143.57;;;10.60;99.90;;;;;;4911068;29;20933;-73
2022/01/29 12:57:22;;;;;;;357.57;206.57;;;10.50;99.90;;;;;;4907063;28;21509;-74